PWSweather.com
Personal Weather Stations
Station Observations
TENMILE2
Watts Bar Lake, Ten Mile, TN 37880

Watts Bar LakeTen Mile, TN 37880

Lat: 35.686, Lon: -84.7068

Elevation: 767

Station Type: Davis VP2

http://www.wattsbarweather.net

High Low Average
Temperature 81.5°F27.5°C 61.2°F16.2°C 68.3°F20.2°C
Dew Point 67.7°F19.8°C 59.7°F15.4°C 63.0°F17.2°C
Winds 5.7 mph 9.2 kmh Calm Calm 1.0 mph S1.6 kmh S
Wind Gusts 13.8 mph22.2 kmh -- 3.0 mph4.8 kmh
Humidity 96% 54% 84%
Pressure 30.22 in1023.4 mb 30.03 in1016.9 mb -
Precipitation 0.06 in1.5 mm - -
Hour Temp Dew Point Humidity Winds Wind Gusts Pressure Precip Precip Rate Daily Precip Total
12:03 AM 63.0°F17.2°C 60.6°F15.9°C 92% Calm Calm 1.0 mph1.6 kmh 30.20 in1022.7 mb 0.00 in0.0 mm 0.00 in0.0 mm 0.00 in0.0 mm
12:08 AM 62.8°F17.1°C 60.4°F15.8°C 92% Calm Calm 1.0 mph1.6 kmh 30.20 in1022.7 mb 0.00 in0.0 mm 0.00 in0.0 mm 0.00 in0.0 mm
12:13 AM 62.7°F17.1°C 60.6°F15.9°C 93% Calm Calm -- 30.20 in1022.7 mb 0.00 in0.0 mm 0.00 in0.0 mm 0.00 in0.0 mm
12:18 AM 62.6°F17.0°C 60.5°F15.8°C 93% Calm Calm -- 30.20 in1022.7 mb 0.00 in0.0 mm 0.00 in0.0 mm 0.00 in0.0 mm
12:23 AM 62.5°F16.9°C 60.4°F15.8°C 93% Calm Calm -- 30.20 in1022.7 mb 0.00 in0.0 mm 0.00 in0.0 mm 0.00 in0.0 mm
12:28 AM 62.4°F16.9°C 60.3°F15.7°C 93% Calm Calm -- 30.20 in1022.7 mb 0.00 in0.0 mm 0.00 in0.0 mm 0.00 in0.0 mm
12:33 AM 62.2°F16.8°C 60.1°F15.6°C 93% Calm Calm -- 30.20 in1022.7 mb 0.00 in0.0 mm 0.00 in0.0 mm 0.00 in0.0 mm
12:38 AM 62.1°F16.7°C 60.0°F15.6°C 93% Calm Calm -- 30.20 in1022.7 mb 0.00 in0.0 mm 0.00 in0.0 mm 0.00 in0.0 mm
12:43 AM 62.0°F16.7°C 60.2°F15.7°C 94% Calm Calm -- 30.20 in1022.7 mb 0.00 in0.0 mm 0.00 in0.0 mm 0.00 in0.0 mm
12:48 AM 61.9°F16.6°C 60.1°F15.6°C 94% Calm Calm -- 30.20 in1022.7 mb 0.00 in0.0 mm 0.00 in0.0 mm 0.00 in0.0 mm
12:53 AM 61.7°F16.5°C 59.9°F15.5°C 94% Calm Calm -- 30.20 in1022.7 mb 0.00 in0.0 mm 0.00 in0.0 mm 0.00 in0.0 mm
12:58 AM 61.7°F16.5°C 59.9°F15.5°C 94% Calm Calm -- 30.20 in1022.7 mb 0.00 in0.0 mm 0.00 in0.0 mm 0.00 in0.0 mm
01:03 AM 61.6°F16.4°C 59.8°F15.4°C 94% Calm Calm -- 30.20 in1022.7 mb 0.00 in0.0 mm 0.00 in0.0 mm 0.00 in0.0 mm
01:08 AM 61.5°F16.4°C 59.8°F15.4°C 94% Calm Calm -- 30.20 in1022.7 mb 0.00 in0.0 mm 0.00 in0.0 mm 0.00 in0.0 mm
01:13 AM 61.5°F16.4°C 59.8°F15.4°C 94% Calm Calm -- 30.20 in1022.7 mb 0.00 in0.0 mm 0.00 in0.0 mm 0.00 in0.0 mm
01:18 AM 61.4°F16.3°C 59.7°F15.4°C 94% Calm Calm -- 30.20 in1022.7 mb 0.00 in0.0 mm 0.00 in0.0 mm 0.00 in0.0 mm
01:23 AM 61.4°F16.3°C 59.9°F15.5°C 95% Calm Calm -- 30.20 in1022.7 mb 0.00 in0.0 mm 0.00 in0.0 mm 0.00 in0.0 mm
01:28 AM 61.3°F16.3°C 59.9°F15.5°C 95% Calm Calm -- 30.20 in1022.7 mb 0.00 in0.0 mm 0.00 in0.0 mm 0.00 in0.0 mm
01:33 AM 61.4°F16.3°C 59.9°F15.5°C 95% Calm Calm -- 30.19 in1022.4 mb 0.00 in0.0 mm 0.00 in0.0 mm 0.00 in0.0 mm
01:38 AM 61.3°F16.3°C 59.8°F15.4°C 95% Calm Calm -- 30.19 in1022.4 mb 0.00 in0.0 mm 0.00 in0.0 mm 0.00 in0.0 mm
01:43 AM 61.2°F16.2°C 59.7°F15.4°C 95% Calm Calm -- 30.20 in1022.7 mb 0.00 in0.0 mm 0.00 in0.0 mm 0.00 in0.0 mm
01:48 AM 61.2°F16.2°C 59.7°F15.4°C 95% Calm Calm -- 30.20 in1022.7 mb 0.00 in0.0 mm 0.00 in0.0 mm 0.00 in0.0 mm
01:53 AM 61.3°F16.3°C 59.8°F15.4°C 95% Calm Calm -- 30.20 in1022.7 mb 0.00 in0.0 mm 0.00 in0.0 mm 0.00 in0.0 mm
01:58 AM 61.3°F16.3°C 59.8°F15.4°C 95% Calm Calm -- 30.20 in1022.7 mb 0.00 in0.0 mm 0.00 in0.0 mm 0.00 in0.0 mm
02:03 AM 61.2°F16.2°C 59.7°F15.4°C 95% Calm Calm -- 30.20 in1022.7 mb 0.00 in0.0 mm 0.00 in0.0 mm 0.00 in0.0 mm
02:08 AM 61.2°F16.2°C 59.8°F15.4°C 95% Calm Calm -- 30.20 in1022.7 mb 0.00 in0.0 mm 0.00 in0.0 mm 0.00 in0.0 mm
02:13 AM 61.3°F16.3°C 59.8°F15.4°C 95% Calm Calm -- 30.19 in1022.4 mb 0.00 in0.0 mm 0.00 in0.0 mm 0.00 in0.0 mm
02:18 AM 61.3°F16.3°C 59.8°F15.4°C 95% Calm Calm -- 30.19 in1022.4 mb 0.00 in0.0 mm 0.00 in0.0 mm 0.00 in0.0 mm
02:23 AM 61.3°F16.3°C 59.8°F15.4°C 95% Calm Calm -- 30.19 in1022.4 mb 0.00 in0.0 mm 0.00 in0.0 mm 0.00 in0.0 mm
02:29 AM 61.4°F16.3°C 59.9°F15.5°C 95% Calm Calm -- 30.19 in1022.4 mb 0.00 in0.0 mm 0.00 in0.0 mm 0.00 in0.0 mm
02:34 AM 61.4°F16.3°C 59.9°F15.5°C 95% Calm Calm -- 30.19 in1022.4 mb 0.00 in0.0 mm 0.00 in0.0 mm 0.00 in0.0 mm
02:39 AM 61.5°F16.4°C 60.0°F15.6°C 95% Calm Calm -- 30.19 in1022.4 mb 0.00 in0.0 mm 0.00 in0.0 mm 0.00 in0.0 mm
02:44 AM 61.6°F16.4°C 60.1°F15.6°C 95% Calm Calm -- 30.19 in1022.4 mb 0.00 in0.0 mm 0.00 in0.0 mm 0.00 in0.0 mm
02:49 AM 61.7°F16.5°C 60.2°F15.7°C 95% Calm Calm 1.3 mph2.1 kmh 30.19 in1022.4 mb 0.00 in0.0 mm 0.00 in0.0 mm 0.00 in0.0 mm
02:54 AM 61.8°F16.6°C 60.3°F15.7°C 95% Calm Calm 1.3 mph2.1 kmh 30.19 in1022.4 mb 0.00 in0.0 mm 0.00 in0.0 mm 0.00 in0.0 mm
02:59 AM 61.8°F16.6°C 60.3°F15.7°C 95% 1.5 mph E2.4 kmh E 2.5 mph4.0 kmh 30.19 in1022.4 mb 0.00 in0.0 mm 0.00 in0.0 mm 0.00 in0.0 mm
03:04 AM 61.9°F16.6°C 60.4°F15.8°C 95% Calm Calm 2.5 mph4.0 kmh 30.19 in1022.4 mb 0.00 in0.0 mm 0.00 in0.0 mm 0.00 in0.0 mm
03:09 AM 62.0°F16.7°C 60.5°F15.8°C 95% Calm Calm 2.0 mph3.2 kmh 30.19 in1022.4 mb 0.00 in0.0 mm 0.00 in0.0 mm 0.00 in0.0 mm
03:14 AM 62.1°F16.7°C 60.6°F15.9°C 95% Calm Calm 1.3 mph2.1 kmh 30.19 in1022.4 mb 0.00 in0.0 mm 0.00 in0.0 mm 0.00 in0.0 mm
03:19 AM 62.1°F16.7°C 60.6°F15.9°C 95% 1.3 mph E2.1 kmh E 1.3 mph2.1 kmh 30.19 in1022.4 mb 0.00 in0.0 mm 0.00 in0.0 mm 0.00 in0.0 mm
03:24 AM 62.2°F16.8°C 60.8°F16.0°C 95% 1.6 mph SSW2.6 kmh SSW 2.5 mph4.0 kmh 30.18 in1022.0 mb 0.00 in0.0 mm 0.00 in0.0 mm 0.00 in0.0 mm
03:29 AM 62.3°F16.8°C 60.8°F16.0°C 95% Calm Calm 2.5 mph4.0 kmh 30.18 in1022.0 mb 0.00 in0.0 mm 0.00 in0.0 mm 0.00 in0.0 mm
03:34 AM 62.4°F16.9°C 60.9°F16.1°C 95% Calm Calm 2.0 mph3.2 kmh 30.19 in1022.4 mb 0.00 in0.0 mm 0.00 in0.0 mm 0.00 in0.0 mm
03:39 AM 62.5°F16.9°C 61.0°F16.1°C 95% Calm Calm 2.0 mph3.2 kmh 30.18 in1022.0 mb 0.00 in0.0 mm 0.00 in0.0 mm 0.00 in0.0 mm
03:44 AM 62.6°F17.0°C 60.8°F16.0°C 94% Calm Calm -- 30.18 in1022.0 mb 0.00 in0.0 mm 0.00 in0.0 mm 0.00 in0.0 mm
03:49 AM 62.6°F17.0°C 60.8°F16.0°C 94% Calm Calm -- 30.18 in1022.0 mb 0.00 in0.0 mm 0.00 in0.0 mm 0.00 in0.0 mm
03:54 AM 62.8°F17.1°C 61.0°F16.1°C 94% Calm Calm -- 30.19 in1022.4 mb 0.00 in0.0 mm 0.00 in0.0 mm 0.00 in0.0 mm
03:59 AM 62.8°F17.1°C 61.0°F16.1°C 94% Calm Calm -- 30.19 in1022.4 mb 0.00 in0.0 mm 0.00 in0.0 mm 0.00 in0.0 mm
04:04 AM 63.0°F17.2°C 61.2°F16.2°C 94% Calm Calm 1.0 mph1.6 kmh 30.19 in1022.4 mb 0.00 in0.0 mm 0.00 in0.0 mm 0.00 in0.0 mm
04:09 AM 63.0°F17.2°C 61.2°F16.2°C 94% Calm Calm 1.0 mph1.6 kmh 30.19 in1022.4 mb 0.00 in0.0 mm 0.00 in0.0 mm 0.00 in0.0 mm
04:14 AM 63.0°F17.2°C 61.2°F16.2°C 94% 1.3 mph SW2.1 kmh SW 1.3 mph2.1 kmh 30.19 in1022.4 mb 0.00 in0.0 mm 0.00 in0.0 mm 0.00 in0.0 mm
04:19 AM 62.9°F17.2°C 61.1°F16.2°C 94% Calm Calm 1.3 mph2.1 kmh 30.19 in1022.4 mb 0.00 in0.0 mm 0.00 in0.0 mm 0.00 in0.0 mm
04:24 AM 62.9°F17.2°C 61.1°F16.2°C 94% Calm Calm 1.0 mph1.6 kmh 30.19 in1022.4 mb 0.00 in0.0 mm 0.00 in0.0 mm 0.00 in0.0 mm
04:29 AM 62.9°F17.2°C 61.1°F16.2°C 94% Calm Calm 1.0 mph1.6 kmh 30.19 in1022.4 mb 0.00 in0.0 mm 0.00 in0.0 mm 0.00 in0.0 mm
04:34 AM 62.9°F17.2°C 61.1°F16.2°C 94% Calm Calm -- 30.18 in1022.0 mb 0.00 in0.0 mm 0.00 in0.0 mm 0.00 in0.0 mm
04:39 AM 62.9°F17.2°C 61.1°F16.2°C 94% Calm Calm -- 30.18 in1022.0 mb 0.00 in0.0 mm 0.00 in0.0 mm 0.00 in0.0 mm
04:44 AM 62.8°F17.1°C 61.0°F16.1°C 94% Calm Calm -- 30.19 in1022.4 mb 0.00 in0.0 mm 0.00 in0.0 mm 0.00 in0.0 mm
04:49 AM 62.8°F17.1°C 61.0°F16.1°C 94% Calm Calm -- 30.19 in1022.4 mb 0.00 in0.0 mm 0.00 in0.0 mm 0.00 in0.0 mm
04:54 AM 62.7°F17.1°C 60.9°F16.1°C 94% Calm Calm -- 30.19 in1022.4 mb 0.00 in0.0 mm 0.00 in0.0 mm 0.00 in0.0 mm
04:59 AM 62.7°F17.1°C 60.9°F16.1°C 94% Calm Calm -- 30.19 in1022.4 mb 0.00 in0.0 mm 0.00 in0.0 mm 0.00 in0.0 mm
05:04 AM 62.7°F17.1°C 60.9°F16.1°C 94% Calm Calm -- 30.19 in1022.4 mb 0.01 in0.3 mm 0.01 in0.3 mm 0.01 in0.3 mm
05:09 AM 62.7°F17.1°C 60.9°F16.1°C 94% Calm Calm -- 30.19 in1022.4 mb 0.01 in0.3 mm 0.00 in0.0 mm 0.01 in0.3 mm
05:14 AM 62.7°F17.1°C 60.9°F16.1°C 94% Calm Calm -- 30.19 in1022.4 mb 0.01 in0.3 mm 0.00 in0.0 mm 0.01 in0.3 mm
05:19 AM 62.6°F17.0°C 61.1°F16.2°C 95% Calm Calm -- 30.19 in1022.4 mb 0.02 in0.5 mm 0.12 in3.0 mm 0.02 in0.5 mm
05:24 AM 62.6°F17.0°C 61.1°F16.2°C 95% Calm Calm 1.0 mph1.6 kmh 30.19 in1022.4 mb 0.02 in0.5 mm 0.00 in0.0 mm 0.02 in0.5 mm
05:29 AM 62.7°F17.1°C 61.2°F16.2°C 95% Calm Calm 1.3 mph2.1 kmh 30.19 in1022.4 mb 0.03 in0.8 mm 0.12 in3.0 mm 0.03 in0.8 mm
05:34 AM 62.8°F17.1°C 61.3°F16.3°C 95% Calm Calm 1.3 mph2.1 kmh 30.18 in1022.0 mb 0.03 in0.8 mm 0.00 in0.0 mm 0.03 in0.8 mm
05:39 AM 62.8°F17.1°C 61.3°F16.3°C 95% 1.3 mph ESE2.1 kmh ESE 1.3 mph2.1 kmh 30.18 in1022.0 mb 0.04 in1.0 mm 0.12 in3.0 mm 0.04 in1.0 mm
05:44 AM 62.9°F17.2°C 61.7°F16.5°C 96% 1.3 mph ESE2.1 kmh ESE 1.3 mph2.1 kmh 30.18 in1022.0 mb 0.04 in1.0 mm 0.00 in0.0 mm 0.04 in1.0 mm
05:49 AM 63.1°F17.3°C 61.9°F16.6°C 96% 1.3 mph SW2.1 kmh SW 1.3 mph2.1 kmh 30.18 in1022.0 mb 0.05 in1.3 mm 0.12 in3.0 mm 0.05 in1.3 mm
05:54 AM 63.2°F17.3°C 62.0°F16.7°C 96% Calm Calm 1.3 mph2.1 kmh 30.18 in1022.0 mb 0.06 in1.5 mm 0.12 in3.0 mm 0.06 in1.5 mm
05:59 AM 63.3°F17.4°C 62.1°F16.7°C 96% Calm Calm 2.5 mph4.0 kmh 30.19 in1022.4 mb 0.05 in1.3 mm 0.00 in0.0 mm 0.06 in1.5 mm
06:04 AM 63.3°F17.4°C 61.8°F16.6°C 95% 1.3 mph N2.1 kmh N 2.5 mph4.0 kmh 30.19 in1022.4 mb 0.05 in1.3 mm 0.00 in0.0 mm 0.06 in1.5 mm
06:09 AM 63.2°F17.3°C 61.7°F16.5°C 95% 1.7 mph N2.7 kmh N 2.5 mph4.0 kmh 30.19 in1022.4 mb 0.05 in1.3 mm 0.00 in0.0 mm 0.06 in1.5 mm
06:14 AM 63.2°F17.3°C 62.0°F16.7°C 96% Calm Calm 2.5 mph4.0 kmh 30.19 in1022.4 mb 0.05 in1.3 mm 0.00 in0.0 mm 0.06 in1.5 mm
06:19 AM 63.2°F17.3°C 62.0°F16.7°C 96% 1.3 mph N2.1 kmh N 2.0 mph3.2 kmh 30.19 in1022.4 mb 0.04 in1.0 mm 0.00 in0.0 mm 0.06 in1.5 mm
06:25 AM 63.2°F17.3°C 62.0°F16.7°C 96% Calm Calm 2.0 mph3.2 kmh 30.19 in1022.4 mb 0.04 in1.0 mm 0.00 in0.0 mm 0.06 in1.5 mm
06:30 AM 63.0°F17.2°C 61.5°F16.4°C 95% 1.3 mph NNE2.1 kmh NNE 1.3 mph2.1 kmh 30.19 in1022.4 mb 0.03 in0.8 mm 0.00 in0.0 mm 0.06 in1.5 mm
06:35 AM 62.9°F17.2°C 61.4°F16.3°C 95% Calm Calm 1.3 mph2.1 kmh 30.19 in1022.4 mb 0.03 in0.8 mm 0.00 in0.0 mm 0.06 in1.5 mm
06:40 AM 62.8°F17.1°C 61.3°F16.3°C 95% Calm Calm 1.0 mph1.6 kmh 30.19 in1022.4 mb 0.02 in0.5 mm 0.00 in0.0 mm 0.06 in1.5 mm
06:45 AM 62.7°F17.1°C 61.5°F16.4°C 96% Calm Calm 1.0 mph1.6 kmh 30.19 in1022.4 mb 0.01 in0.3 mm 0.00 in0.0 mm 0.06 in1.5 mm
06:50 AM 62.7°F17.1°C 61.5°F16.4°C 96% Calm Calm -- 30.19 in1022.4 mb 0.01 in0.3 mm 0.00 in0.0 mm 0.06 in1.5 mm
06:55 AM 62.6°F17.0°C 61.4°F16.3°C 96% Calm Calm -- 30.19 in1022.4 mb 0.00 in0.0 mm 0.00 in0.0 mm 0.06 in1.5 mm
07:00 AM 62.6°F17.0°C 61.4°F16.3°C 96% Calm Calm -- 30.20 in1022.7 mb 0.00 in0.0 mm 0.00 in0.0 mm 0.06 in1.5 mm
07:05 AM 62.5°F16.9°C 61.3°F16.3°C 96% Calm Calm -- 30.20 in1022.7 mb 0.00 in0.0 mm 0.00 in0.0 mm 0.06 in1.5 mm
07:10 AM 62.4°F16.9°C 61.2°F16.2°C 96% Calm Calm -- 30.20 in1022.7 mb 0.00 in0.0 mm 0.00 in0.0 mm 0.06 in1.5 mm
07:15 AM 62.2°F16.8°C 61.0°F16.1°C 96% Calm Calm -- 30.20 in1022.7 mb 0.00 in0.0 mm 0.00 in0.0 mm 0.06 in1.5 mm
07:20 AM 62.1°F16.7°C 60.9°F16.1°C 96% Calm Calm -- 30.20 in1022.7 mb 0.00 in0.0 mm 0.00 in0.0 mm 0.06 in1.5 mm
07:25 AM 61.8°F16.6°C 60.3°F15.7°C 95% 1.3 mph NNE2.1 kmh NNE 1.3 mph2.1 kmh 30.20 in1022.7 mb 0.00 in0.0 mm 0.00 in0.0 mm 0.06 in1.5 mm
07:30 AM 61.7°F16.5°C 60.5°F15.8°C 96% 1.3 mph NNE2.1 kmh NNE 1.3 mph2.1 kmh 30.20 in1022.7 mb 0.00 in0.0 mm 0.00 in0.0 mm 0.06 in1.5 mm
07:35 AM 61.6°F16.4°C 60.4°F15.8°C 96% Calm Calm 1.3 mph2.1 kmh 30.21 in1023.0 mb 0.00 in0.0 mm 0.00 in0.0 mm 0.06 in1.5 mm
07:40 AM 61.5°F16.4°C 60.3°F15.7°C 96% Calm Calm 1.3 mph2.1 kmh 30.21 in1023.0 mb 0.00 in0.0 mm 0.00 in0.0 mm 0.06 in1.5 mm
07:45 AM 61.6°F16.4°C 60.4°F15.8°C 96% Calm Calm 1.0 mph1.6 kmh 30.21 in1023.0 mb 0.00 in0.0 mm 0.00 in0.0 mm 0.06 in1.5 mm
07:50 AM 61.6°F16.4°C 60.4°F15.8°C 96% Calm Calm 1.0 mph1.6 kmh 30.21 in1023.0 mb 0.00 in0.0 mm 0.00 in0.0 mm 0.06 in1.5 mm
07:55 AM 61.6°F16.4°C 60.4°F15.8°C 96% Calm Calm -- 30.21 in1023.0 mb 0.00 in0.0 mm 0.00 in0.0 mm 0.06 in1.5 mm
08:00 AM 61.8°F16.6°C 60.6°F15.9°C 96% Calm Calm -- 30.22 in1023.4 mb 0.00 in0.0 mm 0.00 in0.0 mm 0.06 in1.5 mm
08:05 AM 62.0°F16.7°C 60.8°F16.0°C 96% Calm Calm -- 30.21 in1023.0 mb 0.00 in0.0 mm 0.00 in0.0 mm 0.06 in1.5 mm
08:10 AM 62.1°F16.7°C 60.9°F16.1°C 96% Calm Calm -- 30.21 in1023.0 mb 0.00 in0.0 mm 0.00 in0.0 mm 0.06 in1.5 mm
08:15 AM 62.3°F16.8°C 61.1°F16.2°C 96% Calm Calm 1.3 mph2.1 kmh 30.22 in1023.4 mb 0.00 in0.0 mm 0.00 in0.0 mm 0.06 in1.5 mm
08:20 AM 62.6°F17.0°C 61.4°F16.3°C 96% 1.3 mph NE2.1 kmh NE 1.3 mph2.1 kmh 30.22 in1023.4 mb 0.00 in0.0 mm 0.00 in0.0 mm 0.06 in1.5 mm
08:25 AM 63.4°F17.4°C 62.2°F16.8°C 96% 1.3 mph NE2.1 kmh NE 1.3 mph2.1 kmh 30.22 in1023.4 mb 0.00 in0.0 mm 0.00 in0.0 mm 0.06 in1.5 mm
08:30 AM 64.0°F17.8°C 62.8°F17.1°C 96% Calm Calm 1.3 mph2.1 kmh 30.21 in1023.0 mb 0.00 in0.0 mm 0.00 in0.0 mm 0.06 in1.5 mm
08:35 AM 64.6°F18.1°C 63.4°F17.4°C 96% 1.3 mph NE2.1 kmh NE 1.3 mph2.1 kmh 30.21 in1023.0 mb 0.00 in0.0 mm 0.00 in0.0 mm 0.06 in1.5 mm
08:40 AM 65.2°F18.4°C 63.7°F17.6°C 95% 2.1 mph SSE3.4 kmh SSE 3.8 mph6.1 kmh 30.21 in1023.0 mb 0.00 in0.0 mm 0.00 in0.0 mm 0.06 in1.5 mm
08:45 AM 66.0°F18.9°C 64.2°F17.9°C 94% 1.3 mph SE2.1 kmh SE 3.8 mph6.1 kmh 30.21 in1023.0 mb 0.00 in0.0 mm 0.00 in0.0 mm 0.06 in1.5 mm
08:50 AM 66.7°F19.3°C 64.3°F17.9°C 92% 2.4 mph SSE3.9 kmh SSE 3.8 mph6.1 kmh 30.21 in1023.0 mb 0.00 in0.0 mm 0.00 in0.0 mm 0.06 in1.5 mm
08:55 AM 67.3°F19.6°C 64.6°F18.1°C 91% 3.1 mph SSE5.0 kmh SSE 6.3 mph10.1 kmh 30.21 in1023.0 mb 0.00 in0.0 mm 0.00 in0.0 mm 0.06 in1.5 mm
09:00 AM 67.8°F19.9°C 64.1°F17.8°C 88% 4.2 mph S6.8 kmh S 8.8 mph14.2 kmh 30.21 in1023.0 mb 0.00 in0.0 mm 0.00 in0.0 mm 0.06 in1.5 mm
09:05 AM 68.0°F20.0°C 64.3°F17.9°C 88% 5.7 mph S9.2 kmh S 11.3 mph18.2 kmh 30.21 in1023.0 mb 0.00 in0.0 mm 0.00 in0.0 mm 0.06 in1.5 mm
09:10 AM 68.0°F20.0°C 64.6°F18.1°C 89% 2.2 mph SE3.5 kmh SE 11.3 mph18.2 kmh 30.21 in1023.0 mb 0.00 in0.0 mm 0.00 in0.0 mm 0.06 in1.5 mm
09:15 AM 68.0°F20.0°C 64.3°F17.9°C 88% 4.3 mph S6.9 kmh S 9.0 mph14.5 kmh 30.21 in1023.0 mb 0.00 in0.0 mm 0.00 in0.0 mm 0.06 in1.5 mm
09:20 AM 68.0°F20.0°C 64.6°F18.1°C 89% 2.7 mph S4.3 kmh S 8.8 mph14.2 kmh 30.21 in1023.0 mb 0.00 in0.0 mm 0.00 in0.0 mm 0.06 in1.5 mm
09:25 AM 68.0°F20.0°C 64.0°F17.8°C 87% 4.6 mph SSE7.4 kmh SSE 8.8 mph14.2 kmh 30.21 in1023.0 mb 0.00 in0.0 mm 0.00 in0.0 mm 0.06 in1.5 mm
09:30 AM 68.1°F20.1°C 64.4°F18.0°C 88% 4.7 mph S7.6 kmh S 8.8 mph14.2 kmh 30.21 in1023.0 mb 0.00 in0.0 mm 0.00 in0.0 mm 0.06 in1.5 mm
09:35 AM 68.3°F20.2°C 64.3°F17.9°C 87% 3.1 mph SSE5.0 kmh SSE 7.5 mph12.1 kmh 30.21 in1023.0 mb 0.00 in0.0 mm 0.00 in0.0 mm 0.06 in1.5 mm
09:40 AM 68.3°F20.2°C 64.3°F17.9°C 87% 1.9 mph SSE3.1 kmh SSE 7.0 mph11.3 kmh 30.21 in1023.0 mb 0.00 in0.0 mm 0.00 in0.0 mm 0.06 in1.5 mm
09:45 AM 68.3°F20.2°C 64.3°F17.9°C 87% 1.8 mph SE2.9 kmh SE 6.3 mph10.1 kmh 30.21 in1023.0 mb 0.00 in0.0 mm 0.00 in0.0 mm 0.06 in1.5 mm
09:50 AM 68.5°F20.3°C 64.8°F18.2°C 88% 1.9 mph S3.1 kmh S 6.3 mph10.1 kmh 30.21 in1023.0 mb 0.00 in0.0 mm 0.00 in0.0 mm 0.06 in1.5 mm
09:55 AM 68.5°F20.3°C 64.5°F18.1°C 87% 2.1 mph S3.4 kmh S 6.3 mph10.1 kmh 30.21 in1023.0 mb 0.00 in0.0 mm 0.00 in0.0 mm 0.06 in1.5 mm
10:00 AM 68.4°F20.2°C 64.0°F17.8°C 86% 2.4 mph S3.9 kmh S 6.3 mph10.1 kmh 30.21 in1023.0 mb 0.00 in0.0 mm 0.00 in0.0 mm 0.06 in1.5 mm
10:05 AM 68.3°F20.2°C 63.6°F17.6°C 85% 5.5 mph SSE8.9 kmh SSE 10.0 mph16.1 kmh 30.21 in1023.0 mb 0.00 in0.0 mm 0.00 in0.0 mm 0.06 in1.5 mm
10:10 AM 68.3°F20.2°C 63.6°F17.6°C 85% 3.0 mph SSE4.8 kmh SSE 10.0 mph16.1 kmh 30.21 in1023.0 mb 0.00 in0.0 mm 0.00 in0.0 mm 0.06 in1.5 mm
10:15 AM 68.4°F20.2°C 64.4°F18.0°C 87% 2.5 mph S4.0 kmh S 8.0 mph12.9 kmh 30.21 in1023.0 mb 0.00 in0.0 mm 0.00 in0.0 mm 0.06 in1.5 mm
10:21 AM 68.4°F20.2°C 64.1°F17.8°C 86% 4.1 mph S6.6 kmh S 8.0 mph12.9 kmh 30.21 in1023.0 mb 0.00 in0.0 mm 0.00 in0.0 mm 0.06 in1.5 mm
10:26 AM 68.5°F20.3°C 63.8°F17.7°C 85% 1.5 mph SSE2.4 kmh SSE 7.5 mph12.1 kmh 30.21 in1023.0 mb 0.00 in0.0 mm 0.00 in0.0 mm 0.06 in1.5 mm
10:31 AM 69.0°F20.6°C 64.3°F17.9°C 85% 1.4 mph SE2.3 kmh SE 7.0 mph11.3 kmh 30.21 in1023.0 mb 0.00 in0.0 mm 0.00 in0.0 mm 0.06 in1.5 mm
10:36 AM 69.4°F20.8°C 64.7°F18.2°C 85% Calm Calm 7.0 mph11.3 kmh 30.21 in1023.0 mb 0.00 in0.0 mm 0.00 in0.0 mm 0.06 in1.5 mm
10:41 AM 70.1°F21.2°C 65.1°F18.4°C 84% 1.4 mph WNW2.3 kmh WNW 6.0 mph9.7 kmh 30.21 in1023.0 mb 0.00 in0.0 mm 0.00 in0.0 mm 0.06 in1.5 mm
10:46 AM 70.7°F21.5°C 65.7°F18.7°C 84% 1.7 mph SSW2.7 kmh SSW 3.0 mph4.8 kmh 30.21 in1023.0 mb 0.00 in0.0 mm 0.00 in0.0 mm 0.06 in1.5 mm
10:51 AM 71.2°F21.8°C 65.5°F18.6°C 82% 1.3 mph SW2.1 kmh SW 3.0 mph4.8 kmh 30.20 in1022.7 mb 0.00 in0.0 mm 0.00 in0.0 mm 0.06 in1.5 mm
10:56 AM 71.5°F21.9°C 65.1°F18.4°C 80% 2.0 mph S3.2 kmh S 5.0 mph8.0 kmh 30.20 in1022.7 mb 0.00 in0.0 mm 0.00 in0.0 mm 0.06 in1.5 mm
11:01 AM 71.5°F21.9°C 65.4°F18.6°C 81% 2.8 mph SSE4.5 kmh SSE 5.0 mph8.0 kmh 30.20 in1022.7 mb 0.00 in0.0 mm 0.00 in0.0 mm 0.06 in1.5 mm
11:06 AM 71.8°F22.1°C 65.0°F18.3°C 79% 1.6 mph SE2.6 kmh SE 5.0 mph8.0 kmh 30.20 in1022.7 mb 0.00 in0.0 mm 0.00 in0.0 mm 0.06 in1.5 mm
11:11 AM 72.9°F22.7°C 66.8°F19.3°C 81% 2.2 mph SE3.5 kmh SE 5.0 mph8.0 kmh 30.20 in1022.7 mb 0.00 in0.0 mm 0.00 in0.0 mm 0.06 in1.5 mm
11:16 AM 73.8°F23.2°C 67.3°F19.6°C 80% 1.8 mph ENE2.9 kmh ENE 5.0 mph8.0 kmh 30.20 in1022.7 mb 0.00 in0.0 mm 0.00 in0.0 mm 0.06 in1.5 mm
11:21 AM 74.4°F23.6°C 66.5°F19.2°C 76% 1.3 mph WSW2.1 kmh WSW 4.0 mph6.4 kmh 30.20 in1022.7 mb 0.00 in0.0 mm 0.00 in0.0 mm 0.06 in1.5 mm
11:26 AM 75.2°F24.0°C 67.3°F19.6°C 76% 1.5 mph SW2.4 kmh SW 4.0 mph6.4 kmh 30.19 in1022.4 mb 0.00 in0.0 mm 0.00 in0.0 mm 0.06 in1.5 mm
11:31 AM 75.2°F24.0°C 66.1°F18.9°C 73% 2.3 mph SSE3.7 kmh SSE 3.8 mph6.1 kmh 30.19 in1022.4 mb 0.00 in0.0 mm 0.00 in0.0 mm 0.06 in1.5 mm
11:36 AM 75.4°F24.1°C 67.1°F19.5°C 75% 1.5 mph E2.4 kmh E 3.8 mph6.1 kmh 30.19 in1022.4 mb 0.00 in0.0 mm 0.00 in0.0 mm 0.06 in1.5 mm
11:41 AM 75.6°F24.2°C 66.9°F19.4°C 74% 1.7 mph SSE2.7 kmh SSE 5.0 mph8.0 kmh 30.19 in1022.4 mb 0.00 in0.0 mm 0.00 in0.0 mm 0.06 in1.5 mm
11:46 AM 75.7°F24.3°C 67.4°F19.7°C 75% 2.4 mph SE3.9 kmh SE 5.0 mph8.0 kmh 30.19 in1022.4 mb 0.00 in0.0 mm 0.00 in0.0 mm 0.06 in1.5 mm
11:51 AM 75.9°F24.4°C 67.6°F19.8°C 75% 1.7 mph SSE2.7 kmh SSE 5.0 mph8.0 kmh 30.18 in1022.0 mb 0.00 in0.0 mm 0.00 in0.0 mm 0.06 in1.5 mm
11:56 AM 76.0°F24.4°C 67.7°F19.8°C 75% 2.8 mph S4.5 kmh S 5.0 mph8.0 kmh 30.18 in1022.0 mb 0.00 in0.0 mm 0.00 in0.0 mm 0.06 in1.5 mm
12:01 PM 76.2°F24.6°C 67.1°F19.5°C 73% 1.9 mph SE3.1 kmh SE 5.0 mph8.0 kmh 30.18 in1022.0 mb 0.00 in0.0 mm 0.00 in0.0 mm 0.06 in1.5 mm
12:06 PM 76.5°F24.7°C 67.0°F19.4°C 72% 1.7 mph S2.7 kmh S 4.0 mph6.4 kmh 30.18 in1022.0 mb 0.00 in0.0 mm 0.00 in0.0 mm 0.06 in1.5 mm
12:11 PM 76.9°F24.9°C 67.0°F19.4°C 71% 1.4 mph WSW2.3 kmh WSW 4.0 mph6.4 kmh 30.18 in1022.0 mb 0.00 in0.0 mm 0.00 in0.0 mm 0.06 in1.5 mm
12:16 PM 77.2°F25.1°C 66.9°F19.4°C 70% 1.8 mph S2.9 kmh S 3.0 mph4.8 kmh 30.17 in1021.7 mb 0.00 in0.0 mm 0.00 in0.0 mm 0.06 in1.5 mm
12:21 PM 77.6°F25.3°C 67.7°F19.8°C 71% 1.7 mph WSW2.7 kmh WSW 5.0 mph8.0 kmh 30.17 in1021.7 mb 0.00 in0.0 mm 0.00 in0.0 mm 0.06 in1.5 mm
12:26 PM 77.8°F25.4°C 67.0°F19.4°C 69% 1.7 mph SSE2.7 kmh SSE 5.0 mph8.0 kmh 30.17 in1021.7 mb 0.00 in0.0 mm 0.00 in0.0 mm 0.06 in1.5 mm
12:31 PM 77.8°F25.4°C 66.2°F19.0°C 67% 1.4 mph E2.3 kmh E 4.0 mph6.4 kmh 30.16 in1021.3 mb 0.00 in0.0 mm 0.00 in0.0 mm 0.06 in1.5 mm
12:36 PM 77.9°F25.5°C 67.1°F19.5°C 69% 2.8 mph SSE4.5 kmh SSE 5.0 mph8.0 kmh 30.16 in1021.3 mb 0.00 in0.0 mm 0.00 in0.0 mm 0.06 in1.5 mm
12:41 PM 78.1°F25.6°C 66.0°F18.9°C 66% 2.1 mph S3.4 kmh S 6.3 mph10.1 kmh 30.16 in1021.3 mb 0.00 in0.0 mm 0.00 in0.0 mm 0.06 in1.5 mm
12:46 PM 78.1°F25.6°C 66.0°F18.9°C 66% 5.3 mph S8.5 kmh S 11.3 mph18.2 kmh 30.15 in1021.0 mb 0.00 in0.0 mm 0.00 in0.0 mm 0.06 in1.5 mm
12:51 PM 78.2°F25.7°C 66.1°F18.9°C 66% 4.2 mph SSE6.8 kmh SSE 11.3 mph18.2 kmh 30.15 in1021.0 mb 0.00 in0.0 mm 0.00 in0.0 mm 0.06 in1.5 mm
12:56 PM 78.7°F25.9°C 66.6°F19.2°C 66% 3.0 mph S4.8 kmh S 9.0 mph14.5 kmh 30.14 in1020.7 mb 0.00 in0.0 mm 0.00 in0.0 mm 0.06 in1.5 mm
01:01 PM 79.1°F26.2°C 67.0°F19.4°C 66% 3.0 mph S4.8 kmh S 9.0 mph14.5 kmh 30.14 in1020.7 mb 0.00 in0.0 mm 0.00 in0.0 mm 0.06 in1.5 mm
01:06 PM 79.0°F26.1°C 64.2°F17.9°C 60% 2.0 mph W3.2 kmh W 10.0 mph16.1 kmh 30.14 in1020.7 mb 0.00 in0.0 mm 0.00 in0.0 mm 0.06 in1.5 mm
01:11 PM 79.4°F26.3°C 67.7°F19.8°C 67% 2.5 mph SE4.0 kmh SE 10.0 mph16.1 kmh 30.13 in1020.3 mb 0.00 in0.0 mm 0.00 in0.0 mm 0.06 in1.5 mm
01:16 PM 80.2°F26.8°C 66.2°F19.0°C 62% 2.0 mph S3.2 kmh S 8.0 mph12.9 kmh 30.13 in1020.3 mb 0.00 in0.0 mm 0.00 in0.0 mm 0.06 in1.5 mm
01:21 PM 80.3°F26.8°C 66.3°F19.1°C 62% 5.1 mph S8.2 kmh S 9.0 mph14.5 kmh 30.13 in1020.3 mb 0.00 in0.0 mm 0.00 in0.0 mm 0.06 in1.5 mm
01:26 PM 80.3°F26.8°C 65.4°F18.6°C 60% 4.7 mph S7.6 kmh S 10.0 mph16.1 kmh 30.12 in1020.0 mb 0.00 in0.0 mm 0.00 in0.0 mm 0.06 in1.5 mm
01:31 PM 80.2°F26.8°C 63.8°F17.7°C 57% 2.6 mph SSW4.2 kmh SSW 13.8 mph22.2 kmh 30.12 in1020.0 mb 0.00 in0.0 mm 0.00 in0.0 mm 0.06 in1.5 mm
01:36 PM 80.6°F27.0°C 64.7°F18.2°C 58% 2.6 mph NE4.2 kmh NE 13.8 mph22.2 kmh 30.12 in1020.0 mb 0.00 in0.0 mm 0.00 in0.0 mm 0.06 in1.5 mm
01:41 PM 80.8°F27.1°C 64.4°F18.0°C 57% 2.7 mph S4.3 kmh S 12.0 mph19.3 kmh 30.11 in1019.6 mb 0.00 in0.0 mm 0.00 in0.0 mm 0.06 in1.5 mm
01:46 PM 81.5°F27.5°C 63.4°F17.4°C 54% 3.4 mph S5.5 kmh S 12.0 mph19.3 kmh 30.11 in1019.6 mb 0.00 in0.0 mm 0.00 in0.0 mm 0.06 in1.5 mm
01:51 PM 81.4°F27.4°C 63.2°F17.3°C 54% 4.3 mph S6.9 kmh S 11.3 mph18.2 kmh 30.11 in1019.6 mb 0.00 in0.0 mm 0.00 in0.0 mm 0.06 in1.5 mm
02:11 PM 80.6°F27.0°C 64.0°F17.8°C 57% 1.3 mph SSW2.1 kmh SSW 9.0 mph14.5 kmh 30.13 in1020.3 mb 0.00 in0.0 mm 0.00 in0.0 mm 0.06 in1.5 mm
02:16 PM 77.3°F25.2°C 61.6°F16.4°C 58% 1.6 mph SSE2.6 kmh SSE 9.0 mph14.5 kmh 30.13 in1020.3 mb 0.00 in0.0 mm 0.00 in0.0 mm 0.06 in1.5 mm
02:21 PM 75.3°F24.1°C 60.9°F16.1°C 61% 1.6 mph E2.6 kmh E 9.0 mph14.5 kmh 30.13 in1020.3 mb 0.00 in0.0 mm 0.00 in0.0 mm 0.06 in1.5 mm
02:26 PM 73.9°F23.3°C 61.0°F16.1°C 64% 2.0 mph NE3.2 kmh NE 7.0 mph11.3 kmh 30.13 in1020.3 mb 0.00 in0.0 mm 0.00 in0.0 mm 0.06 in1.5 mm
02:31 PM 73.1°F22.8°C 60.6°F15.9°C 65% 2.8 mph NNW4.5 kmh NNW 6.3 mph10.1 kmh 30.12 in1020.0 mb 0.00 in0.0 mm 0.00 in0.0 mm 0.06 in1.5 mm
02:36 PM 72.5°F22.5°C 61.1°F16.2°C 67% 1.5 mph NE2.4 kmh NE 6.3 mph10.1 kmh 30.12 in1020.0 mb 0.00 in0.0 mm 0.00 in0.0 mm 0.06 in1.5 mm
02:41 PM 72.8°F22.7°C 61.4°F16.3°C 67% 1.8 mph NW2.9 kmh NW 6.3 mph10.1 kmh 30.11 in1019.6 mb 0.00 in0.0 mm 0.00 in0.0 mm 0.06 in1.5 mm
02:46 PM 72.7°F22.6°C 61.7°F16.5°C 68% 3.6 mph N5.8 kmh N 6.3 mph10.1 kmh 30.10 in1019.3 mb 0.00 in0.0 mm 0.00 in0.0 mm 0.06 in1.5 mm
02:51 PM 73.2°F22.9°C 62.2°F16.8°C 68% 3.9 mph N6.3 kmh N 6.3 mph10.1 kmh 30.10 in1019.3 mb 0.00 in0.0 mm 0.00 in0.0 mm 0.06 in1.5 mm
02:56 PM 73.3°F22.9°C 63.1°F17.3°C 70% 1.3 mph NNW2.1 kmh NNW 6.3 mph10.1 kmh 30.10 in1019.3 mb 0.00 in0.0 mm 0.00 in0.0 mm 0.06 in1.5 mm
03:01 PM 73.4°F23.0°C 62.2°F16.8°C 68% Calm Calm 5.0 mph8.0 kmh 30.10 in1019.3 mb 0.00 in0.0 mm 0.00 in0.0 mm 0.06 in1.5 mm
03:06 PM 73.6°F23.1°C 63.4°F17.4°C 70% 2.5 mph N4.0 kmh N 4.0 mph6.4 kmh 30.10 in1019.3 mb 0.00 in0.0 mm 0.00 in0.0 mm 0.06 in1.5 mm
03:11 PM 73.2°F22.9°C 62.0°F16.7°C 68% 1.3 mph N2.1 kmh N 3.8 mph6.1 kmh 30.10 in1019.3 mb 0.00 in0.0 mm 0.00 in0.0 mm 0.06 in1.5 mm
03:16 PM 73.5°F23.1°C 63.7°F17.6°C 71% 2.0 mph SSE3.2 kmh SSE 3.8 mph6.1 kmh 30.09 in1019.0 mb 0.00 in0.0 mm 0.00 in0.0 mm 0.06 in1.5 mm
03:21 PM 73.3°F22.9°C 63.3°F17.4°C 71% 2.9 mph S4.7 kmh S 5.0 mph8.0 kmh 30.10 in1019.3 mb 0.00 in0.0 mm 0.00 in0.0 mm 0.06 in1.5 mm
03:26 PM 72.8°F22.7°C 63.6°F17.6°C 73% 1.4 mph S2.3 kmh S 5.0 mph8.0 kmh 30.10 in1019.3 mb 0.00 in0.0 mm 0.00 in0.0 mm 0.06 in1.5 mm
03:31 PM 72.2°F22.3°C 63.2°F17.3°C 73% 2.2 mph S3.5 kmh S 5.0 mph8.0 kmh 30.10 in1019.3 mb 0.00 in0.0 mm 0.00 in0.0 mm 0.06 in1.5 mm
03:36 PM 71.7°F22.1°C 62.0°F16.7°C 71% 2.5 mph S4.0 kmh S 6.3 mph10.1 kmh 30.09 in1019.0 mb 0.00 in0.0 mm 0.00 in0.0 mm 0.06 in1.5 mm
03:41 PM 71.3°F21.8°C 63.8°F17.7°C 77% 1.5 mph S2.4 kmh S 6.3 mph10.1 kmh 30.09 in1019.0 mb 0.00 in0.0 mm 0.00 in0.0 mm 0.06 in1.5 mm
03:46 PM 71.1°F21.7°C 64.6°F18.1°C 80% Calm Calm 5.0 mph8.0 kmh 30.09 in1019.0 mb 0.00 in0.0 mm 0.00 in0.0 mm 0.06 in1.5 mm
03:51 PM 70.9°F21.6°C 63.0°F17.2°C 76% 1.7 mph S2.7 kmh S 5.0 mph8.0 kmh 30.09 in1019.0 mb 0.00 in0.0 mm 0.00 in0.0 mm 0.06 in1.5 mm
03:56 PM 70.6°F21.4°C 63.5°F17.5°C 78% 1.3 mph SE2.1 kmh SE 3.8 mph6.1 kmh 30.09 in1019.0 mb 0.00 in0.0 mm 0.00 in0.0 mm 0.06 in1.5 mm
04:01 PM 70.4°F21.3°C 62.8°F17.1°C 77% 4.3 mph S6.9 kmh S 12.5 mph20.1 kmh 30.08 in1018.6 mb 0.00 in0.0 mm 0.00 in0.0 mm 0.06 in1.5 mm
04:06 PM 70.5°F21.4°C 62.9°F17.2°C 77% 4.0 mph S6.4 kmh S 12.5 mph20.1 kmh 30.08 in1018.6 mb 0.00 in0.0 mm 0.00 in0.0 mm 0.06 in1.5 mm
04:11 PM 70.6°F21.4°C 63.4°F17.4°C 78% 2.7 mph SE4.3 kmh SE 9.0 mph14.5 kmh 30.07 in1018.3 mb 0.00 in0.0 mm 0.00 in0.0 mm 0.06 in1.5 mm
04:16 PM 70.7°F21.5°C 63.1°F17.3°C 77% 2.4 mph S3.9 kmh S 9.0 mph14.5 kmh 30.07 in1018.3 mb 0.00 in0.0 mm 0.00 in0.0 mm 0.06 in1.5 mm
04:21 PM 70.9°F21.6°C 63.3°F17.4°C 77% 2.3 mph SE3.7 kmh SE 7.5 mph12.1 kmh 30.07 in1018.3 mb 0.00 in0.0 mm 0.00 in0.0 mm 0.06 in1.5 mm
04:26 PM 71.1°F21.7°C 63.9°F17.7°C 78% 1.7 mph NE2.7 kmh NE 6.3 mph10.1 kmh 30.06 in1017.9 mb 0.00 in0.0 mm 0.00 in0.0 mm 0.06 in1.5 mm
04:31 PM 71.4°F21.9°C 64.2°F17.9°C 78% 1.3 mph NNE2.1 kmh NNE 6.3 mph10.1 kmh 30.06 in1017.9 mb 0.00 in0.0 mm 0.00 in0.0 mm 0.06 in1.5 mm
04:37 PM 71.8°F22.1°C 64.3°F17.9°C 77% 1.3 mph SW2.1 kmh SW 5.0 mph8.0 kmh 30.06 in1017.9 mb 0.00 in0.0 mm 0.00 in0.0 mm 0.06 in1.5 mm
04:42 PM 72.3°F22.4°C 64.7°F18.2°C 77% 1.3 mph SW2.1 kmh SW 5.0 mph8.0 kmh 30.06 in1017.9 mb 0.00 in0.0 mm 0.00 in0.0 mm 0.06 in1.5 mm
04:47 PM 73.0°F22.8°C 64.2°F17.9°C 74% 1.3 mph SSW2.1 kmh SSW 2.5 mph4.0 kmh 30.06 in1017.9 mb 0.00 in0.0 mm 0.00 in0.0 mm 0.06 in1.5 mm
04:52 PM 73.9°F23.3°C 64.9°F18.3°C 73% 1.3 mph SE2.1 kmh SE 2.5 mph4.0 kmh 30.06 in1017.9 mb 0.00 in0.0 mm 0.00 in0.0 mm 0.06 in1.5 mm
04:57 PM 75.3°F24.1°C 66.0°F18.9°C 73% Calm Calm 2.5 mph4.0 kmh 30.05 in1017.6 mb 0.00 in0.0 mm 0.00 in0.0 mm 0.06 in1.5 mm
05:02 PM 76.7°F24.8°C 64.5°F18.1°C 66% 1.3 mph WSW2.1 kmh WSW 5.0 mph8.0 kmh 30.05 in1017.6 mb 0.00 in0.0 mm 0.00 in0.0 mm 0.06 in1.5 mm
05:07 PM 77.7°F25.4°C 65.0°F18.3°C 65% 2.1 mph S3.4 kmh S 5.0 mph8.0 kmh 30.05 in1017.6 mb 0.00 in0.0 mm 0.00 in0.0 mm 0.06 in1.5 mm
05:12 PM 78.2°F25.7°C 64.3°F17.9°C 62% 1.3 mph SSE2.1 kmh SSE 5.0 mph8.0 kmh 30.05 in1017.6 mb 0.00 in0.0 mm 0.00 in0.0 mm 0.06 in1.5 mm
05:17 PM 78.9°F26.1°C 65.5°F18.6°C 63% 1.3 mph S2.1 kmh S 4.0 mph6.4 kmh 30.05 in1017.6 mb 0.00 in0.0 mm 0.00 in0.0 mm 0.06 in1.5 mm
05:22 PM 79.1°F26.2°C 65.7°F18.7°C 63% 1.3 mph WSW2.1 kmh WSW 3.0 mph4.8 kmh 30.05 in1017.6 mb 0.00 in0.0 mm 0.00 in0.0 mm 0.06 in1.5 mm
05:27 PM 77.9°F25.5°C 65.0°F18.3°C 64% 1.6 mph S2.6 kmh S 5.0 mph8.0 kmh 30.05 in1017.6 mb 0.00 in0.0 mm 0.00 in0.0 mm 0.06 in1.5 mm
05:32 PM 77.7°F25.4°C 64.8°F18.2°C 64% 1.5 mph SE2.4 kmh SE 5.0 mph8.0 kmh 30.05 in1017.6 mb 0.00 in0.0 mm 0.00 in0.0 mm 0.06 in1.5 mm
05:37 PM 78.3°F25.7°C 65.4°F18.6°C 64% 2.3 mph SSE3.7 kmh SSE 5.0 mph8.0 kmh 30.05 in1017.6 mb 0.00 in0.0 mm 0.00 in0.0 mm 0.06 in1.5 mm
05:42 PM 78.2°F25.7°C 63.4°F17.4°C 60% 3.4 mph S5.5 kmh S 6.3 mph10.1 kmh 30.05 in1017.6 mb 0.00 in0.0 mm 0.00 in0.0 mm 0.06 in1.5 mm
05:47 PM 77.6°F25.3°C 62.3°F16.8°C 59% 1.4 mph SW2.3 kmh SW 6.3 mph10.1 kmh 30.05 in1017.6 mb 0.00 in0.0 mm 0.00 in0.0 mm 0.06 in1.5 mm
05:52 PM 76.9°F24.9°C 64.9°F18.3°C 66% Calm Calm 5.0 mph8.0 kmh 30.05 in1017.6 mb 0.00 in0.0 mm 0.00 in0.0 mm 0.06 in1.5 mm
05:57 PM 76.0°F24.4°C 63.2°F17.3°C 64% 1.3 mph SW2.1 kmh SW 5.0 mph8.0 kmh 30.05 in1017.6 mb 0.00 in0.0 mm 0.00 in0.0 mm 0.06 in1.5 mm
06:02 PM 75.5°F24.2°C 65.2°F18.4°C 70% 1.3 mph WSW2.1 kmh WSW 2.0 mph3.2 kmh 30.06 in1017.9 mb 0.00 in0.0 mm 0.00 in0.0 mm 0.06 in1.5 mm
06:07 PM 75.2°F24.0°C 65.3°F18.5°C 71% 1.3 mph WSW2.1 kmh WSW 1.3 mph2.1 kmh 30.05 in1017.6 mb 0.00 in0.0 mm 0.00 in0.0 mm 0.06 in1.5 mm
06:12 PM 74.8°F23.8°C 64.6°F18.1°C 70% 1.7 mph N2.7 kmh N 3.8 mph6.1 kmh 30.05 in1017.6 mb 0.00 in0.0 mm 0.00 in0.0 mm 0.06 in1.5 mm
06:17 PM 74.4°F23.6°C 64.6°F18.1°C 71% 1.3 mph N2.1 kmh N 3.8 mph6.1 kmh 30.05 in1017.6 mb 0.00 in0.0 mm 0.00 in0.0 mm 0.06 in1.5 mm
06:22 PM 74.3°F23.5°C 64.1°F17.8°C 70% 1.5 mph N2.4 kmh N 2.5 mph4.0 kmh 30.05 in1017.6 mb 0.00 in0.0 mm 0.00 in0.0 mm 0.06 in1.5 mm
06:27 PM 74.5°F23.6°C 63.9°F17.7°C 69% Calm Calm 3.8 mph6.1 kmh 30.04 in1017.3 mb 0.00 in0.0 mm 0.00 in0.0 mm 0.06 in1.5 mm
06:32 PM 74.9°F23.8°C 64.7°F18.2°C 70% Calm Calm 3.8 mph6.1 kmh 30.04 in1017.3 mb 0.00 in0.0 mm 0.00 in0.0 mm 0.06 in1.5 mm
06:37 PM 75.1°F23.9°C 64.0°F17.8°C 68% 1.3 mph NW2.1 kmh NW 3.0 mph4.8 kmh 30.04 in1017.3 mb 0.00 in0.0 mm 0.00 in0.0 mm 0.06 in1.5 mm
06:42 PM 74.7°F23.7°C 63.2°F17.3°C 67% 1.5 mph W2.4 kmh W 3.0 mph4.8 kmh 30.04 in1017.3 mb 0.00 in0.0 mm 0.00 in0.0 mm 0.06 in1.5 mm
06:47 PM 74.4°F23.6°C 63.8°F17.7°C 69% Calm Calm 2.5 mph4.0 kmh 30.04 in1017.3 mb 0.00 in0.0 mm 0.00 in0.0 mm 0.06 in1.5 mm
06:52 PM 74.2°F23.4°C 64.4°F18.0°C 71% Calm Calm 2.0 mph3.2 kmh 30.04 in1017.3 mb 0.00 in0.0 mm 0.00 in0.0 mm 0.06 in1.5 mm
06:57 PM 74.0°F23.3°C 64.2°F17.9°C 71% Calm Calm 2.0 mph3.2 kmh 30.04 in1017.3 mb 0.00 in0.0 mm 0.00 in0.0 mm 0.06 in1.5 mm
07:02 PM 73.5°F23.1°C 64.9°F18.3°C 74% Calm Calm -- 30.04 in1017.3 mb 0.00 in0.0 mm 0.00 in0.0 mm 0.06 in1.5 mm
07:07 PM 73.1°F22.8°C 65.2°F18.4°C 76% Calm Calm -- 30.04 in1017.3 mb 0.00 in0.0 mm 0.00 in0.0 mm 0.06 in1.5 mm
07:12 PM 72.9°F22.7°C 64.3°F17.9°C 74% 1.3 mph W2.1 kmh W 1.3 mph2.1 kmh 30.04 in1017.3 mb 0.00 in0.0 mm 0.00 in0.0 mm 0.06 in1.5 mm
07:17 PM 72.8°F22.7°C 64.9°F18.3°C 76% Calm Calm 1.3 mph2.1 kmh 30.04 in1017.3 mb 0.00 in0.0 mm 0.00 in0.0 mm 0.06 in1.5 mm
07:22 PM 72.6°F22.6°C 66.2°F19.0°C 80% Calm Calm 1.0 mph1.6 kmh 30.04 in1017.3 mb 0.00 in0.0 mm 0.00 in0.0 mm 0.06 in1.5 mm
07:27 PM 72.3°F22.4°C 65.2°F18.4°C 78% Calm Calm 1.0 mph1.6 kmh 30.03 in1016.9 mb 0.00 in0.0 mm 0.00 in0.0 mm 0.06 in1.5 mm
07:32 PM 72.0°F22.2°C 65.9°F18.8°C 81% Calm Calm -- 30.04 in1017.3 mb 0.00 in0.0 mm 0.00 in0.0 mm 0.06 in1.5 mm
07:37 PM 71.8°F22.1°C 65.4°F18.6°C 80% Calm Calm -- 30.04 in1017.3 mb 0.00 in0.0 mm 0.00 in0.0 mm 0.06 in1.5 mm
07:42 PM 71.3°F21.8°C 64.5°F18.1°C 79% Calm Calm -- 30.04 in1017.3 mb 0.00 in0.0 mm 0.00 in0.0 mm 0.06 in1.5 mm
07:48 PM 70.9°F21.6°C 65.2°F18.4°C 82% Calm Calm -- 30.04 in1017.3 mb 0.00 in0.0 mm 0.00 in0.0 mm 0.06 in1.5 mm
07:53 PM 70.5°F21.4°C 65.1°F18.4°C 83% Calm Calm -- 30.04 in1017.3 mb 0.00 in0.0 mm 0.00 in0.0 mm 0.06 in1.5 mm
07:58 PM 70.1°F21.2°C 65.1°F18.4°C 84% Calm Calm -- 30.04 in1017.3 mb 0.00 in0.0 mm 0.00 in0.0 mm 0.06 in1.5 mm
08:03 PM 69.5°F20.8°C 64.5°F18.1°C 84% Calm Calm -- 30.04 in1017.3 mb 0.00 in0.0 mm 0.00 in0.0 mm 0.06 in1.5 mm
08:08 PM 69.0°F20.6°C 64.3°F17.9°C 85% Calm Calm -- 30.04 in1017.3 mb 0.00 in0.0 mm 0.00 in0.0 mm 0.06 in1.5 mm
08:13 PM 68.7°F20.4°C 64.4°F18.0°C 86% Calm Calm -- 30.04 in1017.3 mb 0.00 in0.0 mm 0.00 in0.0 mm 0.06 in1.5 mm
08:18 PM 68.3°F20.2°C 64.3°F17.9°C 87% Calm Calm -- 30.04 in1017.3 mb 0.00 in0.0 mm 0.00 in0.0 mm 0.06 in1.5 mm
08:23 PM 67.9°F19.9°C 63.9°F17.7°C 87% Calm Calm -- 30.04 in1017.3 mb 0.00 in0.0 mm 0.00 in0.0 mm 0.06 in1.5 mm
08:28 PM 67.6°F19.8°C 63.9°F17.7°C 88% Calm Calm -- 30.04 in1017.3 mb 0.00 in0.0 mm 0.00 in0.0 mm 0.06 in1.5 mm
08:33 PM 67.2°F19.6°C 63.5°F17.5°C 88% Calm Calm -- 30.04 in1017.3 mb 0.00 in0.0 mm 0.00 in0.0 mm 0.06 in1.5 mm
08:38 PM 66.9°F19.4°C 63.5°F17.5°C 89% Calm Calm -- 30.04 in1017.3 mb 0.00 in0.0 mm 0.00 in0.0 mm 0.06 in1.5 mm
08:43 PM 66.6°F19.2°C 63.6°F17.6°C 90% Calm Calm -- 30.04 in1017.3 mb 0.00 in0.0 mm 0.00 in0.0 mm 0.06 in1.5 mm
08:48 PM 66.3°F19.1°C 63.3°F17.4°C 90% Calm Calm -- 30.04 in1017.3 mb 0.00 in0.0 mm 0.00 in0.0 mm 0.06 in1.5 mm
08:53 PM 66.1°F18.9°C 63.4°F17.4°C 91% Calm Calm -- 30.04 in1017.3 mb 0.00 in0.0 mm 0.00 in0.0 mm 0.06 in1.5 mm
08:58 PM 65.9°F18.8°C 63.2°F17.3°C 91% Calm Calm -- 30.05 in1017.6 mb 0.00 in0.0 mm 0.00 in0.0 mm 0.06 in1.5 mm
09:03 PM 65.6°F18.7°C 62.9°F17.2°C 91% Calm Calm -- 30.05 in1017.6 mb 0.00 in0.0 mm 0.00 in0.0 mm 0.06 in1.5 mm
09:08 PM 65.4°F18.6°C 62.7°F17.1°C 91% Calm Calm -- 30.05 in1017.6 mb 0.00 in0.0 mm 0.00 in0.0 mm 0.06 in1.5 mm
09:13 PM 65.1°F18.4°C 62.4°F16.9°C 91% Calm Calm -- 30.05 in1017.6 mb 0.00 in0.0 mm 0.00 in0.0 mm 0.06 in1.5 mm
09:18 PM 65.0°F18.3°C 62.6°F17.0°C 92% Calm Calm -- 30.05 in1017.6 mb 0.00 in0.0 mm 0.00 in0.0 mm 0.06 in1.5 mm
09:23 PM 64.9°F18.3°C 62.5°F16.9°C 92% Calm Calm -- 30.05 in1017.6 mb 0.00 in0.0 mm 0.00 in0.0 mm 0.06 in1.5 mm
09:28 PM 64.7°F18.2°C 62.3°F16.8°C 92% Calm Calm -- 30.05 in1017.6 mb 0.00 in0.0 mm 0.00 in0.0 mm 0.06 in1.5 mm
09:33 PM 64.5°F18.1°C 62.1°F16.7°C 92% Calm Calm -- 30.05 in1017.6 mb 0.00 in0.0 mm 0.00 in0.0 mm 0.06 in1.5 mm
09:38 PM 64.3°F17.9°C 61.9°F16.6°C 92% Calm Calm -- 30.05 in1017.6 mb 0.00 in0.0 mm 0.00 in0.0 mm 0.06 in1.5 mm
09:43 PM 64.3°F17.9°C 61.9°F16.6°C 92% Calm Calm -- 30.05 in1017.6 mb 0.00 in0.0 mm 0.00 in0.0 mm 0.06 in1.5 mm
09:48 PM 64.2°F17.9°C 61.8°F16.6°C 92% Calm Calm -- 30.05 in1017.6 mb 0.00 in0.0 mm 0.00 in0.0 mm 0.06 in1.5 mm
09:53 PM 64.1°F17.8°C 62.0°F16.7°C 93% Calm Calm -- 30.05 in1017.6 mb 0.00 in0.0 mm 0.00 in0.0 mm 0.06 in1.5 mm
09:58 PM 64.0°F17.8°C 61.9°F16.6°C 93% Calm Calm -- 30.05 in1017.6 mb 0.00 in0.0 mm 0.00 in0.0 mm 0.06 in1.5 mm
10:03 PM 63.8°F17.7°C 61.7°F16.5°C 93% Calm Calm -- 30.05 in1017.6 mb 0.00 in0.0 mm 0.00 in0.0 mm 0.06 in1.5 mm
10:08 PM 63.7°F17.6°C 61.6°F16.4°C 93% Calm Calm -- 30.05 in1017.6 mb 0.00 in0.0 mm 0.00 in0.0 mm 0.06 in1.5 mm
10:13 PM 63.6°F17.6°C 61.5°F16.4°C 93% Calm Calm -- 30.05 in1017.6 mb 0.00 in0.0 mm 0.00 in0.0 mm 0.06 in1.5 mm
10:18 PM 63.4°F17.4°C 61.3°F16.3°C 93% Calm Calm -- 30.04 in1017.3 mb 0.00 in0.0 mm 0.00 in0.0 mm 0.06 in1.5 mm
10:23 PM 63.5°F17.5°C 61.7°F16.5°C 94% Calm Calm 1.3 mph2.1 kmh 30.04 in1017.3 mb 0.00 in0.0 mm 0.00 in0.0 mm 0.06 in1.5 mm
10:28 PM 63.5°F17.5°C 61.7°F16.5°C 94% Calm Calm 1.3 mph2.1 kmh 30.04 in1017.3 mb 0.00 in0.0 mm 0.00 in0.0 mm 0.06 in1.5 mm
10:33 PM 63.4°F17.4°C 61.6°F16.4°C 94% 2.1 mph S3.4 kmh S 2.5 mph4.0 kmh 30.04 in1017.3 mb 0.00 in0.0 mm 0.00 in0.0 mm 0.06 in1.5 mm
10:38 PM 63.7°F17.6°C 61.9°F16.6°C 94% 1.3 mph SE2.1 kmh SE 2.5 mph4.0 kmh 30.04 in1017.3 mb 0.00 in0.0 mm 0.00 in0.0 mm 0.06 in1.5 mm
10:43 PM 63.9°F17.7°C 62.1°F16.7°C 94% Calm Calm 2.5 mph4.0 kmh 30.04 in1017.3 mb 0.00 in0.0 mm 0.00 in0.0 mm 0.06 in1.5 mm
10:48 PM 63.9°F17.7°C 62.1°F16.7°C 94% 1.3 mph NE2.1 kmh NE 2.0 mph3.2 kmh 30.04 in1017.3 mb 0.00 in0.0 mm 0.00 in0.0 mm 0.06 in1.5 mm
10:53 PM 63.8°F17.7°C 61.7°F16.5°C 93% Calm Calm 2.0 mph3.2 kmh 30.04 in1017.3 mb 0.00 in0.0 mm 0.00 in0.0 mm 0.06 in1.5 mm
10:58 PM 64.1°F17.8°C 62.0°F16.7°C 93% 1.7 mph E2.7 kmh E 2.5 mph4.0 kmh 30.03 in1016.9 mb 0.00 in0.0 mm 0.00 in0.0 mm 0.06 in1.5 mm
11:03 PM 64.4°F18.0°C 62.3°F16.8°C 93% 1.3 mph ENE2.1 kmh ENE 2.5 mph4.0 kmh 30.03 in1016.9 mb 0.00 in0.0 mm 0.00 in0.0 mm 0.06 in1.5 mm
11:08 PM 64.7°F18.2°C 62.3°F16.8°C 92% 1.3 mph ESE2.1 kmh ESE 2.5 mph4.0 kmh 30.03 in1016.9 mb 0.00 in0.0 mm 0.00 in0.0 mm 0.06 in1.5 mm
11:13 PM 64.9°F18.3°C 61.9°F16.6°C 90% 1.3 mph SE2.1 kmh SE 1.3 mph2.1 kmh 30.03 in1016.9 mb 0.00 in0.0 mm 0.00 in0.0 mm 0.06 in1.5 mm
11:18 PM 65.3°F18.5°C 62.6°F17.0°C 91% 1.3 mph SE2.1 kmh SE 1.3 mph2.1 kmh 30.03 in1016.9 mb 0.00 in0.0 mm 0.00 in0.0 mm 0.06 in1.5 mm
11:23 PM 65.5°F18.6°C 62.5°F16.9°C 90% Calm Calm 1.3 mph2.1 kmh 30.03 in1016.9 mb 0.00 in0.0 mm 0.00 in0.0 mm 0.06 in1.5 mm
11:28 PM 65.6°F18.7°C 62.9°F17.2°C 91% 1.3 mph SW2.1 kmh SW 1.3 mph2.1 kmh 30.03 in1016.9 mb 0.00 in0.0 mm 0.00 in0.0 mm 0.06 in1.5 mm
11:33 PM 65.6°F18.7°C 62.6°F17.0°C 90% Calm Calm 2.0 mph3.2 kmh 30.04 in1017.3 mb 0.00 in0.0 mm 0.00 in0.0 mm 0.06 in1.5 mm
11:38 PM 65.6°F18.7°C 62.6°F17.0°C 90% Calm Calm 2.0 mph3.2 kmh 30.04 in1017.3 mb 0.00 in0.0 mm 0.00 in0.0 mm 0.06 in1.5 mm
11:43 PM 65.6°F18.7°C 62.9°F17.2°C 91% Calm Calm 2.0 mph3.2 kmh 30.04 in1017.3 mb 0.00 in0.0 mm 0.00 in0.0 mm 0.06 in1.5 mm
11:48 PM 65.5°F18.6°C 62.8°F17.1°C 91% Calm Calm 2.0 mph3.2 kmh 30.04 in1017.3 mb 0.00 in0.0 mm 0.00 in0.0 mm 0.06 in1.5 mm
11:53 PM 65.4°F18.6°C 62.7°F17.1°C 91% Calm Calm -- 30.04 in1017.3 mb 0.00 in0.0 mm 0.00 in0.0 mm 0.06 in1.5 mm
11:58 PM 65.4°F18.6°C 62.7°F17.1°C 91% Calm Calm -- 30.04 in1017.3 mb 0.00 in0.0 mm 0.00 in0.0 mm 0.06 in1.5 mm